메인 페이지
METAR-TAF:

공항 :

칭다오, 중국

칭다오 류팅 국제공항

위도: 36-04N, 경도: 120-20E, 고도: 77m

현재 날씨관측

예보는 50분 전, 02:00시(UTC)에 발표되었습니다.
북북서14kt
온도 27°C
습도 48%
기압 1012 hPa
시정 10km 이상
고도 2600ft 상공 구름 조금

METAR: ZSQD 270200Z 34007MPS 9999 FEW026 27/15 Q1012 NOSIG

시각: 10:50 (02:50 UTC)

예보

예보는 5 시간 30분 전, 21:20시(UTC)에 발표되었습니다.
예보 대상 시간: 27일 00시부터 27일 24시까지 (UTC)
8kt
시정: 5000m
박무

TAF: ZSQD 262120Z 2700/2724 35004MPS 5000 BR NSC TX29/2706Z TN16/2721Z

METAR-TAF

4,000개 이상의 공항 관측 자료 및 예보 (METAR 및 TAF 보고).

지도상에서 검색 가능한 기상관측소가 노란 점과 빨간 점으로 표시되어 있습니다.

기상관측소 명을 보려면 표시 위로 마우스를 이동하세요.

날씨 관측과 예보를 보려면 클릭하세요.

지도 변경 : 확대하려면 엑스 표시가 있는 녹색 버튼, 축소하려면 빼기 표시가 있는 녹색 버튼, 다음 페이지의 지도를 보려면 녹색 화살표를 클릭하세요.


METAR-TAF: